Time;durP1;ratioP1;P1;durP2;ratioP2;P2;SDS_P1;SDS_P2;PMS_P1;PMS_P2;Temp;Humidity;BMP_temperature;BMP_pressure;BME280_temperature;BME280_humidity;BME280_pressure;Samples;Min_cycle;Max_cycle;Signal;HPM_P1;HPM_P2
2022/12/16 00:04:00;;;;;;;25.03;14.10;;;1.30;99.90;;;;;;5007063;28;20213;-85
2022/12/16 00:07:10;;;;;;;28.00;15.27;;;1.30;99.90;;;;;;5012468;28;20218;-85
2022/12/16 00:09:37;;;;;;;23.77;14.07;;;1.20;99.90;;;;;;5014468;28;20209;-85
2022/12/16 00:15:26;;;;;;;28.17;15.40;;;1.30;99.90;;;;;;5013329;28;20217;-87
2022/12/16 00:18:27;;;;;;;24.67;13.67;;;1.30;99.90;;;;;;5014413;28;20215;-87
2022/12/16 00:21:29;;;;;;;24.20;13.70;;;1.20;99.90;;;;;;5006319;28;20290;-87
2022/12/16 00:24:15;;;;;;;26.20;14.33;;;1.10;99.90;;;;;;5003090;28;20205;-86
2022/12/16 00:30:39;;;;;;;28.57;15.70;;;1.20;99.90;;;;;;5000243;28;20246;-86
2022/12/16 00:33:28;;;;;;;31.33;15.97;;;1.20;99.90;;;;;;5011792;28;20518;-86
2022/12/16 00:36:10;;;;;;;29.60;16.67;;;1.10;99.90;;;;;;5013119;28;20282;-86
2022/12/16 00:42:06;;;;;;;29.37;16.97;;;1.10;99.90;;;;;;5006596;28;20564;-85
2022/12/16 00:45:04;;;;;;;33.23;16.87;;;1.10;99.90;;;;;;5004899;28;20537;-87
2022/12/16 00:47:46;;;;;;;30.93;16.23;;;1.00;99.90;;;;;;5012410;28;20218;-86
2022/12/16 00:50:48;;;;;;;31.70;16.30;;;1.10;99.90;;;;;;4995691;28;20242;-87
2022/12/16 00:53:16;;;;;;;32.93;16.67;;;1.10;99.90;;;;;;5000365;28;20591;-86
2022/12/16 00:55:46;;;;;;;31.87;17.47;;;1.00;99.90;;;;;;5011762;28;20209;-86
2022/12/16 01:04:58;;;;;;;31.57;16.27;;;1.00;99.90;;;;;;5004624;28;20214;-86
2022/12/16 01:07:40;;;;;;;28.43;15.13;;;1.00;99.90;;;;;;5011279;28;20291;-85
2022/12/16 01:10:45;;;;;;;27.30;14.57;;;1.00;99.90;;;;;;5010787;28;20217;-85
2022/12/16 01:13:24;;;;;;;31.13;15.47;;;1.10;99.90;;;;;;5012883;28;20226;-85
2022/12/16 01:19:16;;;;;;;27.87;13.87;;;1.00;99.90;;;;;;5009183;28;20225;-86
2022/12/16 01:22:11;;;;;;;27.00;14.47;;;1.00;99.90;;;;;;5013572;28;20586;-85
2022/12/16 01:24:46;;;;;;;27.20;14.60;;;0.90;99.90;;;;;;5003190;28;20199;-85
2022/12/16 01:27:22;;;;;;;28.33;14.13;;;1.00;99.90;;;;;;5012091;28;20203;-85
2022/12/16 01:29:49;;;;;;;27.80;14.17;;;1.00;99.90;;;;;;5010496;28;20207;-85
2022/12/16 01:32:47;;;;;;;26.33;14.40;;;1.00;99.90;;;;;;5012393;28;20191;-86
2022/12/16 01:35:22;;;;;;;24.07;13.43;;;1.00;99.90;;;;;;5007354;28;20199;-85
2022/12/16 01:38:27;;;;;;;25.50;14.87;;;1.00;99.90;;;;;;5013157;28;20207;-85
2022/12/16 01:41:23;;;;;;;26.30;14.30;;;1.00;99.90;;;;;;5006936;28;20226;-86
2022/12/16 01:44:13;;;;;;;25.87;14.33;;;1.00;99.90;;;;;;5007234;28;20208;-85
2022/12/16 01:47:12;;;;;;;24.53;14.53;;;1.00;99.90;;;;;;5021575;28;20202;-85
2022/12/16 01:50:11;;;;;;;23.57;13.63;;;1.10;99.90;;;;;;5009644;28;20681;-85
2022/12/16 01:53:27;;;;;;;26.33;14.57;;;1.00;99.90;;;;;;5012895;28;20191;-86
2022/12/16 02:03:28;;;;;;;25.80;14.73;;;1.00;99.90;;;;;;5011472;28;20202;-85
2022/12/16 02:13:22;;;;;;;24.13;13.20;;;1.00;99.90;;;;;;5007879;28;20190;-85
2022/12/16 02:20:04;;;;;;;27.13;14.83;;;1.10;99.90;;;;;;4999753;28;20214;-85
2022/12/16 02:23:07;;;;;;;27.27;14.27;;;1.00;99.90;;;;;;5009711;28;20651;-85
2022/12/16 02:26:12;;;;;;;23.67;14.00;;;1.00;99.90;;;;;;5012861;28;20199;-85
2022/12/16 02:29:22;;;;;;;28.57;14.57;;;1.10;99.90;;;;;;4967425;28;20208;-85
2022/12/16 02:32:15;;;;;;;25.10;14.80;;;1.20;99.90;;;;;;4967161;28;20205;-85
2022/12/16 02:38:18;;;;;;;24.93;13.83;;;1.10;99.90;;;;;;4969652;28;20251;-86
2022/12/16 02:41:24;;;;;;;20.47;12.53;;;1.00;99.90;;;;;;4964909;28;20224;-85
2022/12/16 02:47:11;;;;;;;19.87;12.30;;;1.20;99.90;;;;;;4965805;28;20239;-85
2022/12/16 02:50:16;;;;;;;18.07;12.33;;;1.20;99.90;;;;;;4967006;28;20231;-85
2022/12/16 02:56:17;;;;;;;19.93;13.27;;;1.10;99.90;;;;;;4972685;28;20211;-86
2022/12/16 02:59:15;;;;;;;22.23;14.33;;;1.10;99.90;;;;;;4968479;28;20238;-85
2022/12/16 03:05:11;;;;;;;21.30;13.77;;;1.00;99.90;;;;;;4972493;28;20237;-85
2022/12/16 03:08:05;;;;;;;20.13;13.50;;;1.00;99.90;;;;;;5013785;28;20678;-87
2022/12/16 03:10:39;;;;;;;21.23;13.87;;;1.10;99.90;;;;;;5010535;28;20222;-85
2022/12/16 03:16:34;;;;;;;23.03;14.80;;;1.20;99.90;;;;;;5014390;28;20194;-85
2022/12/16 03:19:08;;;;;;;24.23;16.07;;;1.10;99.90;;;;;;5006756;28;20204;-85
2022/12/16 03:21:43;;;;;;;24.80;15.20;;;1.00;99.90;;;;;;5003095;28;20204;-85
2022/12/16 03:24:22;;;;;;;23.93;16.20;;;1.10;99.90;;;;;;5003627;28;20202;-85
2022/12/16 03:33:42;;;;;;;24.50;15.40;;;1.00;99.90;;;;;;5009734;28;20229;-85
2022/12/16 03:36:21;;;;;;;23.40;15.53;;;1.00;99.90;;;;;;5009959;28;20269;-85
2022/12/16 03:39:12;;;;;;;26.63;15.77;;;1.00;99.90;;;;;;5002931;28;20223;-85
2022/12/16 03:42:10;;;;;;;22.90;14.60;;;1.00;99.90;;;;;;5010627;28;20533;-85
2022/12/16 03:48:00;;;;;;;23.33;14.83;;;1.00;99.90;;;;;;5004158;28;20226;-84
2022/12/16 03:50:46;;;;;;;20.60;14.50;;;1.00;99.90;;;;;;5012804;28;20198;-85
2022/12/16 03:57:15;;;;;;;21.00;14.40;;;0.90;99.90;;;;;;5019461;28;20185;-85
2022/12/16 04:00:13;;;;;;;18.77;13.80;;;1.00;99.90;;;;;;5007947;28;20223;-84
2022/12/16 04:02:52;;;;;;;22.47;14.30;;;0.90;99.90;;;;;;5013407;28;20283;-85
2022/12/16 04:05:19;;;;;;;20.87;14.93;;;0.90;99.90;;;;;;5014735;28;20211;-85
2022/12/16 04:07:58;;;;;;;23.40;15.10;;;1.00;99.90;;;;;;5011772;28;20206;-85
2022/12/16 04:25:58;;;;;;;26.67;16.90;;;0.80;99.90;;;;;;5006119;28;20206;-82
2022/12/16 04:31:40;;;;;;;27.80;17.73;;;0.50;99.90;;;;;;5013839;28;20206;-83
